Observation data for Seymour on 01/16/2019      Previous  Date  Next       Current Mesonet Observations  Soil Data  Daily Summary Page  Observations in Plain Language
KSE1 160600Z 16009KT 06/05 A3015 RMK A01 T00570045  RH  094%=      5-min Rain = 0
KSE1 160605Z 16009KT 06/04 A3015 RMK A01 T00560044  RH  094%=      5-min Rain = 0
KSE1 160610Z 16009KT 06/04 A3015 RMK A01 T00560044  RH  094%=      5-min Rain = 0
KSE1 160615Z 16008KT 06/04 A3014 RMK A01 T00550043  RH  094%=      5-min Rain = 0
KSE1 160620Z 16007KT 05/04 A3014 RMK A01 T00540042  RH  094%=      5-min Rain = 0
KSE1 160625Z 16006KT 05/04 A3014 RMK A01 T00530042  RH  095%=      5-min Rain = 0
KSE1 160630Z 16005KT 05/04 A3014 RMK A01 T00510040  RH  095%=      5-min Rain = 0
KSE1 160635Z 15006KT 05/04 A3014 RMK A01 T00500040  RH  095%=      5-min Rain = 0
KSE1 160640Z 15006KT 05/04 A3013 RMK A01 T00500040  RH  095%=      5-min Rain = 0
KSE1 160645Z 16006KT 05/04 A3013 RMK A01 T00510041  RH  095%=      5-min Rain = 0
KSE1 160650Z 16006KT 05/04 A3013 RMK A01 T00500041  RH  095%=      5-min Rain = 0
KSE1 160655Z 15005KT 05/04 A3013 RMK A01 T00500040  RH  095%=      5-min Rain = 0
KSE1 160700Z 16005KT 05/04 A3013 RMK A01 T00490040  RH  095%=      5-min Rain = 0
KSE1 160705Z 16005KT 05/04 A3012 RMK A01 T00490040  RH  096%=      5-min Rain = 0
KSE1 160710Z 16005KT 05/04 A3012 RMK A01 T00500041  RH  096%=      5-min Rain = 0
KSE1 160715Z 16005KT 05/04 A3012 RMK A01 T00500041  RH  096%=      5-min Rain = 0
KSE1 160720Z 17005KT 05/04 A3012 RMK A01 T00510042  RH  096%=      5-min Rain = 0
KSE1 160725Z 16006KT 05/04 A3012 RMK A01 T00530044  RH  096%=      5-min Rain = 0
KSE1 160730Z 16006KT 05/04 A3012 RMK A01 T00530043  RH  095%=      5-min Rain = 0
KSE1 160735Z 16006KT 05/04 A3012 RMK A01 T00530043  RH  095%=      5-min Rain = 0
KSE1 160740Z 16006KT 05/04 A3012 RMK A01 T00520042  RH  095%=      5-min Rain = 0
KSE1 160745Z 17005KT 05/04 A3012 RMK A01 T00510041  RH  095%=      5-min Rain = 0
KSE1 160750Z 17005KT 05/04 A3012 RMK A01 T00500040  RH  095%=      5-min Rain = 0
KSE1 160755Z 17007KT 05/04 A3012 RMK A01 T00510042  RH  096%=      5-min Rain = 0
KSE1 160800Z 17008KT 05/04 A3012 RMK A01 T00530043  RH  095%=      5-min Rain = 0
KSE1 160805Z 17008KT 05/04 A3012 RMK A01 T00520041  RH  095%=      5-min Rain = 0
KSE1 160810Z 17008KT 05/04 A3012 RMK A01 T00500040  RH  095%=      5-min Rain = 0
KSE1 160815Z 17008KT 05/04 A3012 RMK A01 T00490040  RH  095%=      5-min Rain = 0
KSE1 160820Z 17007KT 05/04 A3012 RMK A01 T00490040  RH  096%=      5-min Rain = 0
KSE1 160825Z 17007KT 05/04 A3013 RMK A01 T00490040  RH  096%=      5-min Rain = 0
KSE1 160830Z 17007KT 05/04 A3013 RMK A01 T00480039  RH  096%=      5-min Rain = 0
KSE1 160835Z 17007KT 05/04 A3012 RMK A01 T00470038  RH  096%=      5-min Rain = 0
KSE1 160840Z 17006KT 05/04 A3013 RMK A01 T00460037  RH  096%=      5-min Rain = 0
KSE1 160845Z 16005KT 04/04 A3012 RMK A01 T00440036  RH  096%=      5-min Rain = 0
KSE1 160850Z 15005KT 04/03 A3012 RMK A01 T00430034  RH  096%=      5-min Rain = 0
KSE1 160855Z 15005KT 04/03 A3012 RMK A01 T00420034  RH  096%=      5-min Rain = 0
KSE1 160900Z 15004KT 04/03 A3012 RMK A01 T00420034  RH  096%=      5-min Rain = 0
KSE1 160905Z 14004KT 04/03 A3012 RMK A01 T00410034  RH  097%=      5-min Rain = 0
KSE1 160910Z 15002KT 04/03 A3012 RMK A01 T00410034  RH  097%=      5-min Rain = 0
KSE1 160915Z 14002KT 04/03 A3012 RMK A01 T00400033  RH  097%=      5-min Rain = 0
KSE1 160920Z 14003KT 04/03 A3012 RMK A01 T00390032  RH  097%=      5-min Rain = 0
KSE1 160925Z 14003KT 04/03 A3012 RMK A01 T00380031  RH  097%=      5-min Rain = 0
KSE1 160930Z 16004KT 04/03 A3012 RMK A01 T00410034  RH  097%=      5-min Rain = 0
KSE1 160935Z 16005KT 04/03 A3012 RMK A01 T00400034  RH  097%=      5-min Rain = 0
KSE1 160940Z 15006KT 04/03 A3012 RMK A01 T00400033  RH  097%=      5-min Rain = 0
KSE1 160945Z 16007KT 04/03 A3012 RMK A01 T00400034  RH  097%=      5-min Rain = 0
KSE1 160950Z 15006KT 04/03 A3012 RMK A01 T00400034  RH  098%=      5-min Rain = 0
KSE1 160955Z 15006KT 04/03 A3012 RMK A01 T00400034  RH  098%=      5-min Rain = 0
KSE1 161000Z 15005KT 04/03 A3012 RMK A01 T00400034  RH  098%=      5-min Rain = 0
KSE1 161005Z 16005KT 04/03 A3012 RMK A01 T00400033  RH  098%=      5-min Rain = 0
KSE1 161010Z 17005KT 04/04 A3013 RMK A01 T00410035  RH  098%=      5-min Rain = 0
KSE1 161015Z 18005KT 04/03 A3013 RMK A01 T00400034  RH  098%=      5-min Rain = 0
KSE1 161020Z 17005KT 04/03 A3013 RMK A01 T00390033  RH  098%=      5-min Rain = 0
KSE1 161025Z 18005KT 04/03 A3013 RMK A01 T00400034  RH  098%=      5-min Rain = 0
KSE1 161030Z 19004KT 04/03 A3013 RMK A01 T00390033  RH  098%=      5-min Rain = 0
KSE1 161035Z 18005KT 04/03 A3012 RMK A01 T00380032  RH  098%=      5-min Rain = 0
KSE1 161040Z 17005KT 04/03 A3012 RMK A01 T00390033  RH  098%=      5-min Rain = 0
KSE1 161045Z 17005KT 04/03 A3012 RMK A01 T00400034  RH  098%=      5-min Rain = 0
KSE1 161050Z 18006KT 04/04 A3011 RMK A01 T00410035  RH  098%=      5-min Rain = 0
KSE1 161055Z 18007KT 04/04 A3011 RMK A01 T00430037  RH  098%=      5-min Rain = 0
KSE1 161100Z 18006KT 04/04 A3012 RMK A01 T00430037  RH  098%=      5-min Rain = 0
KSE1 161105Z 18005KT 04/04 A3011 RMK A01 T00420036  RH  098%=      5-min Rain = 0
KSE1 161110Z 17006KT 04/04 A3011 RMK A01 T00410035  RH  098%=      5-min Rain = 0
KSE1 161115Z 16007KT 04/04 A301 RMK A01 T00410035  RH  098%=      5-min Rain = 0
KSE1 161120Z 17009KT 04/04 A301 RMK A01 T00420036  RH  098%=      5-min Rain = 0
KSE1 161125Z 17009KT 04/04 A301 RMK A01 T00420037  RH  098%=      5-min Rain = 0
KSE1 161130Z 17008KT 04/04 A301 RMK A01 T00420036  RH  098%=      5-min Rain = 0
KSE1 161135Z 17008KT 04/04 A301 RMK A01 T00430038  RH  098%=      5-min Rain = 0
KSE1 161140Z 18009KT 05/04 A301 RMK A01 T00450039  RH  098%=      5-min Rain = 0
KSE1 161145Z 19010KT 05/04 A3011 RMK A01 T00470042  RH  098%=      5-min Rain = 0
KSE1 161150Z 20012KT 05/04 A3011 RMK A01 T00490044  RH  099%=      5-min Rain = 0
KSE1 161155Z 20012KT 05/05 A3012 RMK A01 T00510046  RH  099%=      5-min Rain = 0
KSE1 161200Z 20011G17KT 05/05 A3011 RMK A01 T00520047  RH  099%=      5-min Rain = 0
KSE1 161205Z 20011KT 05/05 A3011 RMK A01 T00530049  RH  099%=      5-min Rain = 0
KSE1 161210Z 19011KT 05/05 A3011 RMK A01 T00540050  RH  099%=      5-min Rain = 0
KSE1 161215Z 19011KT 06/05 A3011 RMK A01 T00550051  RH  099%=      5-min Rain = 0
KSE1 161220Z 19010KT 06/05 A3011 RMK A01 T00570052  RH  099%=      5-min Rain = 0
KSE1 161225Z 19011KT 06/05 A3011 RMK A01 T00580054  RH  099%=      5-min Rain = 0
KSE1 161230Z 19011KT 06/06 A3011 RMK A01 T00590055  RH  099%=      5-min Rain = 0
KSE1 161235Z 20012G17KT 06/06 A3012 RMK A01 T00600056  RH  099%=      5-min Rain = 0
KSE1 161240Z 21012KT 06/06 A3013 RMK A01 T00610057  RH  099%=      5-min Rain = 0
KSE1 161245Z 21012KT 06/06 A3013 RMK A01 T00620058  RH  099%=      5-min Rain = 0
KSE1 161250Z 21010G15KT 06/06 A3013 RMK A01 T00630058  RH  099%=      5-min Rain = 0
KSE1 161255Z 20010G15KT 06/06 A3013 RMK A01 T00630059  RH  099%=      5-min Rain = 0
KSE1 161300Z 20011KT 06/06 A3013 RMK A01 T00630059  RH  099%=      5-min Rain = 0
KSE1 161305Z 19012KT 06/06 A3012 RMK A01 T00640060  RH  099%=      5-min Rain = 0
KSE1 161310Z 19011KT 07/06 A3012 RMK A01 T00650060  RH  099%=      5-min Rain = 0
KSE1 161315Z 19011KT 07/06 A3012 RMK A01 T00650061  RH  099%=      5-min Rain = 0
KSE1 161320Z 19010KT 07/06 A3012 RMK A01 T00660061  RH  099%=      5-min Rain = 0
KSE1 161325Z 20010KT 07/06 A3012 RMK A01 T00660062  RH  100%=      5-min Rain = 0
KSE1 161330Z 19010KT 07/06 A3012 RMK A01 T00670062  RH  100%=      5-min Rain = 0
KSE1 161335Z 19010KT 07/06 A3011 RMK A01 T00670063  RH  100%=      5-min Rain = 0
KSE1 161340Z 20011G16KT 07/06 A3012 RMK A01 T00680064  RH  100%=      5-min Rain = 0
KSE1 161345Z 20011KT 07/06 A3012 RMK A01 T00680064  RH  100%=      5-min Rain = 0
KSE1 161350Z 20011KT 07/07 A3012 RMK A01 T00690065  RH  100%=      5-min Rain = 0
KSE1 161355Z 20011KT 07/07 A3012 RMK A01 T00690065  RH  100%=      5-min Rain = 0
KSE1 161400Z 20010KT 07/07 A3012 RMK A01 T00700066  RH  100%=      5-min Rain = 0
KSE1 161405Z 20010KT 07/07 A3013 RMK A01 T00710066  RH  100%=      5-min Rain = 0
KSE1 161410Z 20010KT 07/07 A3013 RMK A01 T00710067  RH  100%=      5-min Rain = 0
KSE1 161415Z 20009KT 07/07 A3012 RMK A01 T00720068  RH  100%=      5-min Rain = 0
KSE1 161420Z 19009KT 07/07 A3012 RMK A01 T00730068  RH  100%=      5-min Rain = 0
KSE1 161425Z 18007KT 07/07 A3012 RMK A01 T00730069  RH  100%=      5-min Rain = 0
KSE1 161430Z 18009KT 07/07 A3011 RMK A01 T00740070  RH  100%=      5-min Rain = 0
KSE1 161435Z 18009KT 08/07 A3011 RMK A01 T00750070  RH  100%=      5-min Rain = 0
KSE1 161440Z 18010KT 08/07 A3011 RMK A01 T00760071  RH  100%=      5-min Rain = 0
KSE1 161445Z 18011KT 08/07 A3011 RMK A01 T00760072  RH  100%=      5-min Rain = 0
KSE1 161450Z 18011KT 08/07 A3011 RMK A01 T00770072  RH  100%=      5-min Rain = 0
KSE1 161455Z 18011KT 08/07 A3011 RMK A01 T00770073  RH  100%=      5-min Rain = 0
KSE1 161500Z 19010KT 08/07 A3011 RMK A01 T00780073  RH  099%=      5-min Rain = 0
KSE1 161505Z 19012KT 08/07 A3011 RMK A01 T00780073  RH  099%=      5-min Rain = 0
KSE1 161510Z 19012KT 08/07 A3011 RMK A01 T00790074  RH  099%=      5-min Rain = 0
KSE1 161515Z 19010KT 08/08 A3011 RMK A01 T00800075  RH  099%=      5-min Rain = 0
KSE1 161520Z 19011KT 08/08 A3011 RMK A01 T00800075  RH  099%=      5-min Rain = 0
KSE1 161525Z 19011KT 08/08 A3011 RMK A01 T00810076  RH  099%=      5-min Rain = 0
KSE1 161530Z 19011G16KT 08/08 A3011 RMK A01 T00820077  RH  099%=      5-min Rain = 0
KSE1 161535Z 20013KT 08/08 A3011 RMK A01 T00830078  RH  099%=      5-min Rain = 0
KSE1 161540Z 20012KT 09/08 A3012 RMK A01 T00850079  RH  099%=      5-min Rain = 0
KSE1 161545Z 20012KT 09/08 A3011 RMK A01 T00860080  RH  099%=      5-min Rain = 0
KSE1 161550Z 20012KT 09/08 A3011 RMK A01 T00870081  RH  099%=      5-min Rain = 0
KSE1 161555Z 20013KT 09/08 A3011 RMK A01 T00880082  RH  099%=      5-min Rain = 0
KSE1 161600Z 20012KT 09/08 A3012 RMK A01 T00890082  RH  098%=      5-min Rain = 0
KSE1 161605Z 20014KT 09/08 A3012 RMK A01 T00900083  RH  098%=      5-min Rain = 0
KSE1 161610Z 20013KT 09/08 A3012 RMK A01 T00920084  RH  097%=      5-min Rain = 0
KSE1 161615Z 20013KT 09/08 A3012 RMK A01 T00930083  RH  096%=      5-min Rain = 0
KSE1 161620Z 20015KT 09/08 A3012 RMK A01 T00940083  RH  095%=      5-min Rain = 0
KSE1 161625Z 19012KT 10/09 A3012 RMK A01 T00980085  RH  095%=      5-min Rain = 0
KSE1 161630Z 19014KT 10/09 A3012 RMK A01 T01000086  RH  093%=      5-min Rain = 0
KSE1 161635Z 20012KT 10/09 A3012 RMK A01 T01000085  RH  093%=      5-min Rain = 0
KSE1 161640Z 19013KT 10/09 A3012 RMK A01 T01020086  RH  092%=      5-min Rain = 0
KSE1 161645Z 19011G16KT 11/09 A3012 RMK A01 T01050088  RH  092%=      5-min Rain = 0
KSE1 161650Z 20012KT 11/09 A3013 RMK A01 T01060087  RH  091%=      5-min Rain = 0
KSE1 161655Z 20013KT 10/09 A3012 RMK A01 T01040085  RH  091%=      5-min Rain = 0
KSE1 161700Z 19014KT 11/09 A3012 RMK A01 T01050086  RH  090%=      5-min Rain = 0
KSE1 161705Z 19014G19KT 11/09 A3012 RMK A01 T01100088  RH  089%=      5-min Rain = 0
KSE1 161710Z 19014KT 12/09 A3012 RMK A01 T01150089  RH  087%=      5-min Rain = 0
KSE1 161715Z 19011KT 12/09 A3012 RMK A01 T01190092  RH  086%=      5-min Rain = 0
KSE1 161720Z 19012KT 12/09 A3012 RMK A01 T01210091  RH  084%=      5-min Rain = 0
KSE1 161725Z 19013G18KT 12/09 A3012 RMK A01 T01200091  RH  085%=      5-min Rain = 0
KSE1 161730Z 19015KT 12/09 A3011 RMK A01 T01190089  RH  084%=      5-min Rain = 0
KSE1 161735Z 18014G19KT 12/09 A301 RMK A01 T01230090  RH  083%=      5-min Rain = 0
KSE1 161740Z 19013KT 13/09 A301 RMK A01 T01270091  RH  081%=      5-min Rain = 0
KSE1 161745Z 19012KT 13/09 A301 RMK A01 T01270092  RH  082%=      5-min Rain = 0
KSE1 161750Z 19013KT 13/09 A301 RMK A01 T01290093  RH  081%=      5-min Rain = 0
KSE1 161755Z 19014KT 13/09 A301 RMK A01 T01300093  RH  081%=      5-min Rain = 0
KSE1 161800Z 19013KT 13/09 A301 RMK A01 T01310093  RH  080%=      5-min Rain = 0
KSE1 161805Z 20013KT 13/09 A301 RMK A01 T01320094  RH  081%=      5-min Rain = 0
KSE1 161810Z 19014KT 13/10 A301 RMK A01 T01330095  RH  080%=      5-min Rain = 0
KSE1 161815Z 19014KT 14/10 A3009 RMK A01 T01360095  RH  079%=      5-min Rain = 0
KSE1 161820Z 19014KT 14/09 A3009 RMK A01 T01350093  RH  078%=      5-min Rain = 0
KSE1 161825Z 19015G21KT 14/09 A3008 RMK A01 T01360094  RH  078%=      5-min Rain = 0
KSE1 161830Z 19013KT 14/10 A3007 RMK A01 T01410096  RH  077%=      5-min Rain = 0
KSE1 161835Z 19013KT 14/10 A3007 RMK A01 T01410095  RH  076%=      5-min Rain = 0
KSE1 161840Z 19012KT 15/10 A3007 RMK A01 T01460098  RH  075%=      5-min Rain = 0
KSE1 161845Z 19012KT 15/10 A3006 RMK A01 T01470098  RH  075%=      5-min Rain = 0
KSE1 161850Z 19012G17KT 15/10 A3006 RMK A01 T01480099  RH  075%=      5-min Rain = 0
KSE1 161855Z 19014KT 15/10 A3006 RMK A01 T01490098  RH  074%=      5-min Rain = 0
KSE1 161900Z 19014KT 15/10 A3005 RMK A01 T01490097  RH  073%=      5-min Rain = 0
KSE1 161905Z 19012KT 15/10 A3005 RMK A01 T01500099  RH  074%=      5-min Rain = 0
KSE1 161910Z 18012KT 16/10 A3004 RMK A01 T01550101  RH  073%=      5-min Rain = 0
KSE1 161915Z 18013KT 15/10 A3004 RMK A01 T01530100  RH  073%=      5-min Rain = 0
KSE1 161920Z 17012KT 15/10 A3003 RMK A01 T01500100  RH  074%=      5-min Rain = 0
KSE1 161925Z 18013KT 15/10 A3003 RMK A01 T01530100  RH  073%=      5-min Rain = 0
KSE1 161930Z 18013KT 15/10 A3003 RMK A01 T01520100  RH  074%=      5-min Rain = 0
KSE1 161935Z 18011KT 16/10 A3002 RMK A01 T01580103  RH  073%=      5-min Rain = 0
KSE1 161940Z 18013KT 15/10 A3002 RMK A01 T01530099  RH  073%=      5-min Rain = 0
KSE1 161945Z 18013KT 15/10 A3002 RMK A01 T01520100  RH  073%=      5-min Rain = 0
KSE1 161950Z 18014KT 15/10 A3001 RMK A01 T01520098  RH  072%=      5-min Rain = 0
KSE1 161955Z 18013KT 15/10 A3001 RMK A01 T01530099  RH  072%=      5-min Rain = 0
KSE1 162000Z 19012G17KT 16/10 A30 RMK A01 T01610103  RH  071%=      5-min Rain = 0
KSE1 162005Z 18014KT 16/10 A30 RMK A01 T01600100  RH  070%=      5-min Rain = 0
KSE1 162010Z 18014KT 16/10 A30 RMK A01 T01620100  RH  069%=      5-min Rain = 0
KSE1 162015Z 18014KT 16/10 A2999 RMK A01 T01640101  RH  068%=      5-min Rain = 0
KSE1 162020Z 18016G21KT 17/10 A2999 RMK A01 T01670102  RH  067%=      5-min Rain = 0
KSE1 162025Z 18016KT 17/10 A2999 RMK A01 T01720103  RH  066%=      5-min Rain = 0
KSE1 162030Z 18016KT 17/10 A2999 RMK A01 T01710102  RH  066%=      5-min Rain = 0
KSE1 162035Z 18015G21KT 17/10 A2998 RMK A01 T01670101  RH  067%=      5-min Rain = 0
KSE1 162040Z 18015KT 17/10 A2998 RMK A01 T01660101  RH  068%=      5-min Rain = 0
KSE1 162045Z 18015KT 17/10 A2998 RMK A01 T01660101  RH  067%=      5-min Rain = 0
KSE1 162050Z 18014KT 17/10 A2998 RMK A01 T01680103  RH  068%=      5-min Rain = 0
KSE1 162055Z 19013KT 17/11 A2998 RMK A01 T01720106  RH  068%=      5-min Rain = 0
KSE1 162100Z 19014G19KT 18/11 A2998 RMK A01 T01790107  RH  065%=      5-min Rain = 0
KSE1 162105Z 19014KT 18/11 A2998 RMK A01 T01820108  RH  064%=      5-min Rain = 0
KSE1 162110Z 18015G21KT 18/11 A2998 RMK A01 T01830109  RH  064%=      5-min Rain = 0
KSE1 162115Z 18016G21KT 19/11 A2997 RMK A01 T01850108  RH  063%=      5-min Rain = 0
KSE1 162120Z 19016G22KT 18/11 A2997 RMK A01 T01840107  RH  063%=      5-min Rain = 0
KSE1 162125Z 19015G21KT 19/11 A2997 RMK A01 T01850109  RH  063%=      5-min Rain = 0
KSE1 162130Z 19014G21KT 19/11 A2997 RMK A01 T01860110  RH  063%=      5-min Rain = 0
KSE1 162135Z 19015KT 19/11 A2997 RMK A01 T01880111  RH  063%=      5-min Rain = 0
KSE1 162140Z 19017G22KT 19/11 A2997 RMK A01 T01880109  RH  062%=      5-min Rain = 0
KSE1 162145Z 19015G20KT 19/11 A2997 RMK A01 T01880108  RH  062%=      5-min Rain = 0
KSE1 162150Z 18015KT 19/11 A2997 RMK A01 T01870108  RH  062%=      5-min Rain = 0
KSE1 162155Z 18013G19KT 19/11 A2997 RMK A01 T01880111  RH  063%=      5-min Rain = 0
KSE1 162200Z 18013G18KT 19/11 A2996 RMK A01 T01900111  RH  062%=      5-min Rain = 0
KSE1 162205Z 19014G19KT 19/11 A2996 RMK A01 T01890110  RH  062%=      5-min Rain = 0
KSE1 162210Z 19014KT 19/11 A2996 RMK A01 T01890110  RH  062%=      5-min Rain = 0
KSE1 162215Z 19014KT 19/11 A2996 RMK A01 T01890111  RH  062%=      5-min Rain = 0
KSE1 162220Z 19012G17KT 19/11 A2996 RMK A01 T01880112  RH  063%=      5-min Rain = 0
KSE1 162225Z 19015KT 19/11 A2996 RMK A01 T01870110  RH  063%=      5-min Rain = 0
KSE1 162230Z 19014G19KT 19/11 A2996 RMK A01 T01850110  RH  064%=      5-min Rain = 0
KSE1 162235Z 19016KT 18/11 A2996 RMK A01 T01830108  RH  064%=      5-min Rain = 0
KSE1 162240Z 19014KT 18/11 A2996 RMK A01 T01810107  RH  064%=      5-min Rain = 0
KSE1 162245Z 19013KT 18/11 A2996 RMK A01 T01790108  RH  066%=      5-min Rain = 0
KSE1 162250Z 19013KT 18/11 A2997 RMK A01 T01750107  RH  067%=      5-min Rain = 0
KSE1 162255Z 19013KT 17/11 A2997 RMK A01 T01740107  RH  067%=      5-min Rain = 0
KSE1 162300Z 19013KT 17/11 A2997 RMK A01 T01710106  RH  068%=      5-min Rain = 0
KSE1 162305Z 19013KT 17/11 A2997 RMK A01 T01680105  RH  069%=      5-min Rain = 0
KSE1 162310Z 18012KT 17/10 A2997 RMK A01 T01660104  RH  069%=      5-min Rain = 0
KSE1 162315Z 18012KT 17/10 A2996 RMK A01 T01650103  RH  069%=      5-min Rain = 0
KSE1 162320Z 18012KT 16/10 A2996 RMK A01 T01630104  RH  070%=      5-min Rain = 0
KSE1 162325Z 18012KT 16/10 A2996 RMK A01 T01610103  RH  071%=      5-min Rain = 0
KSE1 162330Z 18011KT 16/10 A2996 RMK A01 T01590103  RH  071%=      5-min Rain = 0
KSE1 162335Z 18010KT 16/10 A2996 RMK A01 T01590102  RH  071%=      5-min Rain = 0
KSE1 162340Z 18009KT 16/10 A2996 RMK A01 T01570101  RH  072%=      5-min Rain = 0
KSE1 162345Z 18010KT 16/10 A2996 RMK A01 T01550100  RH  072%=      5-min Rain = 0
KSE1 162350Z 17008KT 15/10 A2996 RMK A01 T01520100  RH  073%=      5-min Rain = 0
KSE1 162355Z 17008KT 15/10 A2996 RMK A01 T01510099  RH  073%=      5-min Rain = 0
KSE1 170000Z 17008KT 15/10 A2996 RMK A01 T01500099  RH  074%=      5-min Rain = 0
KSE1 170005Z 17008KT 15/10 A2996 RMK A01 T01490099  RH  074%=      5-min Rain = 0
KSE1 170010Z 16009KT 15/10 A2996 RMK A01 T01470098  RH  075%=      5-min Rain = 0
KSE1 170015Z 17009KT 15/10 A2995 RMK A01 T01470098  RH  075%=      5-min Rain = 0
KSE1 170020Z 17010KT 15/10 A2996 RMK A01 T01460097  RH  075%=      5-min Rain = 0
KSE1 170025Z 17010KT 15/10 A2996 RMK A01 T01450096  RH  075%=      5-min Rain = 0
KSE1 170030Z 17011KT 14/10 A2996 RMK A01 T01430096  RH  075%=      5-min Rain = 0
KSE1 170035Z 17011KT 14/10 A2996 RMK A01 T01420095  RH  076%=      5-min Rain = 0
KSE1 170040Z 17010KT 14/10 A2996 RMK A01 T01400095  RH  076%=      5-min Rain = 0
KSE1 170045Z 17011KT 14/09 A2995 RMK A01 T01400094  RH  076%=      5-min Rain = 0
KSE1 170050Z 17010KT 14/09 A2995 RMK A01 T01380093  RH  077%=      5-min Rain = 0
KSE1 170055Z 18010KT 14/09 A2996 RMK A01 T01380093  RH  077%=      5-min Rain = 0
KSE1 170100Z 17010KT 14/09 A2995 RMK A01 T01370092  RH  077%=      5-min Rain = 0
KSE1 170105Z 17012KT 14/09 A2995 RMK A01 T01370092  RH  076%=      5-min Rain = 0
KSE1 170110Z 18011KT 14/09 A2996 RMK A01 T01370091  RH  076%=      5-min Rain = 0
KSE1 170115Z 17011KT 14/09 A2996 RMK A01 T01370091  RH  076%=      5-min Rain = 0
KSE1 170120Z 17011KT 14/09 A2996 RMK A01 T01370091  RH  076%=      5-min Rain = 0
KSE1 170125Z 17011KT 14/09 A2996 RMK A01 T01350091  RH  077%=      5-min Rain = 0
KSE1 170130Z 17012KT 14/09 A2995 RMK A01 T01350090  RH  077%=      5-min Rain = 0
KSE1 170135Z 18012KT 13/09 A2995 RMK A01 T01330090  RH  078%=      5-min Rain = 0
KSE1 170140Z 18011G16KT 13/09 A2996 RMK A01 T01310090  RH  079%=      5-min Rain = 0
KSE1 170145Z 18012G17KT 13/09 A2996 RMK A01 T01310090  RH  079%=      5-min Rain = 0
KSE1 170150Z 18012G17KT 13/09 A2996 RMK A01 T01310090  RH  079%=      5-min Rain = 0
KSE1 170155Z 19012G19KT 13/09 A2996 RMK A01 T01320090  RH  078%=      5-min Rain = 0
KSE1 170200Z 19012KT 13/09 A2996 RMK A01 T01310090  RH  079%=      5-min Rain = 0
KSE1 170205Z 19012KT 13/09 A2996 RMK A01 T01310091  RH  079%=      5-min Rain = 0
KSE1 170210Z 19012KT 13/09 A2996 RMK A01 T01310091  RH  079%=      5-min Rain = 0
KSE1 170215Z 19011G17KT 13/09 A2996 RMK A01 T01300091  RH  079%=      5-min Rain = 0
KSE1 170220Z 19011KT 13/09 A2996 RMK A01 T01290090  RH  080%=      5-min Rain = 0
KSE1 170225Z 20012KT 13/09 A2997 RMK A01 T01270090  RH  081%=      5-min Rain = 0
KSE1 170230Z 20012KT 13/09 A2997 RMK A01 T01270091  RH  081%=      5-min Rain = 0
KSE1 170235Z 20011G16KT 13/09 A2997 RMK A01 T01260091  RH  082%=      5-min Rain = 0
KSE1 170240Z 20012G18KT 13/09 A2997 RMK A01 T01250091  RH  082%=      5-min Rain = 0
KSE1 170245Z 20011G17KT 13/09 A2997 RMK A01 T01250091  RH  082%=      5-min Rain = 0
KSE1 170250Z 20011KT 12/09 A2997 RMK A01 T01240091  RH  083%=      5-min Rain = 0
KSE1 170255Z 20011G16KT 12/09 A2997 RMK A01 T01240092  RH  083%=      5-min Rain = 0
KSE1 170300Z 20011KT 13/09 A2997 RMK A01 T01250092  RH  083%=      5-min Rain = 0
KSE1 170305Z 21012KT 13/09 A2997 RMK A01 T01260093  RH  083%=      5-min Rain = 0
KSE1 170310Z 20013KT 13/09 A2997 RMK A01 T01280094  RH  082%=      5-min Rain = 0
KSE1 170315Z 20013KT 13/09 A2997 RMK A01 T01280094  RH  082%=      5-min Rain = 0
KSE1 170320Z 20013KT 13/09 A2997 RMK A01 T01260093  RH  083%=      5-min Rain = 0
KSE1 170325Z 20013KT 13/09 A2997 RMK A01 T01260093  RH  083%=      5-min Rain = 0
KSE1 170330Z 20012G17KT 13/09 A2997 RMK A01 T01250093  RH  084%=      5-min Rain = 0
KSE1 170335Z 20013KT 13/09 A2997 RMK A01 T01250094  RH  084%=      5-min Rain = 0
KSE1 170340Z 20014KT 13/09 A2997 RMK A01 T01250094  RH  084%=      5-min Rain = 0
KSE1 170345Z 20015KT 13/09 A2997 RMK A01 T01260094  RH  083%=      5-min Rain = 0
KSE1 170350Z 20014KT 13/09 A2997 RMK A01 T01260094  RH  083%=      5-min Rain = 0
KSE1 170355Z 20012G17KT 12/09 A2997 RMK A01 T01240093  RH  084%=      5-min Rain = 0
KSE1 170400Z 21013KT 12/09 A2997 RMK A01 T01240094  RH  084%=      5-min Rain = 0
KSE1 170405Z 21013KT 13/09 A2997 RMK A01 T01250094  RH  084%=      5-min Rain = 0
KSE1 170410Z 21013KT 13/09 A2997 RMK A01 T01250094  RH  084%=      5-min Rain = 0
KSE1 170415Z 21013G18KT 12/09 A2997 RMK A01 T01240094  RH  084%=      5-min Rain = 0
KSE1 170420Z 21013KT 13/09 A2997 RMK A01 T01250094  RH  084%=      5-min Rain = 0
KSE1 170425Z 22011KT 12/09 A2998 RMK A01 T01240094  RH  084%=      5-min Rain = 0
KSE1 170430Z 22012KT 12/09 A2999 RMK A01 T01230094  RH  085%=      5-min Rain = 0
KSE1 170435Z 22011KT 12/09 A2999 RMK A01 T01220093  RH  085%=      5-min Rain = 0
KSE1 170440Z 22010KT 12/09 A30 RMK A01 T01210092  RH  085%=      5-min Rain = 0
KSE1 170445Z 22011KT 12/09 A30 RMK A01 T01210093  RH  086%=      5-min Rain = 0
KSE1 170450Z 23009KT 12/09 A2999 RMK A01 T01200092  RH  085%=      5-min Rain = 0
KSE1 170455Z 22009KT 12/09 A30 RMK A01 T01160090  RH  087%=      5-min Rain = 0
KSE1 170500Z 22009KT 12/09 A30 RMK A01 T01150091  RH  087%=      5-min Rain = 0
KSE1 170505Z 22009KT 11/09 A30 RMK A01 T01140090  RH  088%=      5-min Rain = 0
KSE1 170510Z 22010KT 11/09 A30 RMK A01 T01120090  RH  088%=      5-min Rain = 0
KSE1 170515Z 22010KT 11/09 A30 RMK A01 T01120090  RH  089%=      5-min Rain = 0
KSE1 170520Z 22010KT 11/09 A30 RMK A01 T01120090  RH  088%=      5-min Rain = 0
KSE1 170525Z 22009KT 11/09 A30 RMK A01 T01110088  RH  088%=      5-min Rain = 0
KSE1 170530Z 21010KT 11/09 A2999 RMK A01 T01100088  RH  089%=      5-min Rain = 0
KSE1 170535Z 22009KT 11/09 A2999 RMK A01 T01090087  RH  088%=      5-min Rain = 0
KSE1 170540Z 22010KT 11/09 A2999 RMK A01 T01110087  RH  088%=      5-min Rain = 0
KSE1 170545Z 22011KT 11/09 A2999 RMK A01 T01100086  RH  088%=      5-min Rain = 0
KSE1 170550Z 22011KT 11/09 A2999 RMK A01 T01110087  RH  087%=      5-min Rain = 0
KSE1 170555Z 22010KT 11/09 A30 RMK A01 T01100085  RH  087%=      5-min Rain = 0

Page generated in 0.013 seconds.